createdAt,value
2019-05-14T00:00:32.091Z,97149.63
2019-05-14T00:03:13.637Z,97157.27
2019-05-14T00:05:55.641Z,97121.66
2019-05-14T00:08:45.346Z,97146.10
2019-05-14T00:11:27.830Z,97145.63
2019-05-14T00:14:17.564Z,97117.53
2019-05-14T00:17:01.684Z,97141.14
2019-05-14T00:20:05.894Z,97141.70
2019-05-14T00:22:36.117Z,97135.05
2019-05-14T00:25:26.420Z,97139.00
2019-05-14T00:28:09.007Z,97124.98
2019-05-14T00:30:58.959Z,97125.02
2019-05-14T00:33:42.076Z,97127.14
2019-05-14T00:36:31.992Z,97122.70
2019-05-14T00:39:16.225Z,97120.52
2019-05-14T00:42:06.050Z,97102.13
2019-05-14T00:44:57.777Z,97124.95
2019-05-14T00:50:24.279Z,97090.88
2019-05-14T00:52:54.894Z,97106.47
2019-05-14T00:55:44.570Z,97105.98
2019-05-14T00:58:27.184Z,97107.93
2019-05-14T01:01:16.960Z,97105.63
2019-05-14T01:04:25.759Z,97091.51
2019-05-14T01:07:15.602Z,97114.77
2019-05-14T01:10:05.906Z,97104.92
2019-05-14T01:12:36.604Z,97100.06
2019-05-14T01:15:26.300Z,97108.86
2019-05-14T01:18:08.464Z,97095.95
2019-05-14T01:20:58.247Z,97107.02
2019-05-14T01:23:47.992Z,97104.50
2019-05-14T01:26:37.788Z,97104.27
2019-05-14T01:29:27.733Z,97108.67
2019-05-14T01:32:17.536Z,97105.02
2019-05-14T01:35:07.509Z,97096.36
2019-05-14T01:37:57.282Z,97100.97
2019-05-14T01:43:42.258Z,97095.39
2019-05-14T01:46:32.042Z,97094.15
2019-05-14T01:49:14.439Z,97072.44
2019-05-14T01:52:04.126Z,97075.94
2019-05-14T01:54:53.844Z,97084.89
2019-05-14T02:00:44.684Z,97075.09
2019-05-14T02:03:34.418Z,97070.28
2019-05-14T02:06:21.271Z,97076.29
2019-05-14T02:09:11.673Z,97051.58
2019-05-14T02:11:53.511Z,97054.43
2019-05-14T02:15:02.097Z,97075.53
2019-05-14T02:17:32.712Z,97073.28
2019-05-14T02:20:22.431Z,97067.42
2019-05-14T02:23:04.633Z,97074.22
2019-05-14T02:25:54.359Z,97058.31
2019-05-14T02:28:38.619Z,97066.32
2019-05-14T02:31:29.247Z,97062.96
2019-05-14T02:34:12.746Z,97067.42
2019-05-14T02:37:02.460Z,97067.18
2019-05-14T02:39:44.344Z,97054.31
2019-05-14T02:42:34.077Z,97054.53
2019-05-14T02:45:19.509Z,97054.35
2019-05-14T02:48:09.598Z,97057.43
2019-05-14T02:50:52.021Z,97031.61
2019-05-14T02:53:41.731Z,97047.11
2019-05-14T02:56:23.721Z,97045.41
2019-05-14T03:01:59.377Z,97044.20
2019-05-14T03:04:50.044Z,97046.80
2019-05-14T03:07:33.568Z,97044.45
2019-05-14T03:10:23.294Z,97030.02
2019-05-14T03:13:13.024Z,97042.97
2019-05-14T03:16:20.957Z,97044.27
2019-05-14T03:18:49.935Z,97037.01
2019-05-14T03:21:39.519Z,97027.45
2019-05-14T03:24:23.001Z,97013.11
2019-05-14T03:27:12.714Z,97004.35
2019-05-14T03:29:58.474Z,97032.46
2019-05-14T03:32:52.076Z,97033.53
2019-05-14T03:35:41.326Z,97037.13
2019-05-14T03:38:22.960Z,97021.71
2019-05-14T03:41:05.673Z,97034.02
2019-05-14T03:43:55.380Z,97033.26
2019-05-14T03:46:53.907Z,97036.66
2019-05-14T03:49:29.064Z,97019.77
2019-05-14T03:52:19.986Z,97018.41
2019-05-14T03:55:04.739Z,97037.92
2019-05-14T03:57:35.733Z,97032.23
2019-05-14T04:01:19.932Z,97040.16
2019-05-14T04:04:01.544Z,97030.30
2019-05-14T04:06:51.666Z,97009.55
2019-05-14T04:12:55.376Z,97000.33
2019-05-14T04:18:59.941Z,97035.55
2019-05-14T04:21:51.035Z,97040.45
2019-05-14T04:24:41.628Z,97053.13
2019-05-14T04:27:25.600Z,97046.95
2019-05-14T04:30:20.614Z,97042.27
2019-05-14T04:33:00.926Z,97035.59
2019-05-14T04:35:50.776Z,97041.80
2019-05-14T04:38:41.207Z,97038.32
2019-05-14T04:41:24.923Z,97041.16
2019-05-14T04:44:14.615Z,97038.28
2019-05-14T04:46:59.947Z,97041.19
2019-05-14T04:52:33.676Z,97025.54
2019-05-14T04:55:25.719Z,97038.83
2019-05-14T04:58:15.490Z,97041.11
2019-05-14T05:01:05.286Z,97028.53
2019-05-14T05:03:55.072Z,97012.38
2019-05-14T05:06:44.847Z,97032.16
2019-05-14T05:12:09.842Z,97034.13
2019-05-14T05:15:00.140Z,97043.02
2019-05-14T05:17:51.824Z,97037.02
2019-05-14T05:20:58.198Z,97033.86
2019-05-14T05:23:39.968Z,97010.97
2019-05-14T05:26:29.711Z,97029.08
2019-05-14T05:29:12.679Z,97024.28
2019-05-14T05:32:02.987Z,97008.19
2019-05-14T05:34:48.138Z,97014.14
2019-05-14T05:37:38.456Z,97024.52
2019-05-14T05:40:21.575Z,97020.35
2019-05-14T05:43:11.340Z,97026.41
2019-05-14T05:45:54.049Z,97031.94
2019-05-14T05:48:43.791Z,97029.45
2019-05-14T05:51:25.915Z,97032.95
2019-05-14T05:54:15.681Z,97034.14
2019-05-14T05:56:58.591Z,97037.08
2019-05-14T05:59:48.720Z,97037.88
2019-05-14T06:02:32.658Z,97030.80
2019-05-14T06:08:23.639Z,97008.38
2019-05-14T06:11:13.371Z,97020.59
2019-05-14T06:13:55.633Z,97015.58
2019-05-14T06:16:45.359Z,97020.98
2019-05-14T06:19:28.979Z,97020.39
2019-05-14T06:22:19.110Z,97023.83
2019-05-14T06:25:02.922Z,97011.84
2019-05-14T06:27:45.751Z,97019.67
2019-05-14T06:33:51.093Z,97008.98
2019-05-14T06:36:40.771Z,97010.46
2019-05-14T06:39:23.731Z,97010.70
2019-05-14T06:42:13.559Z,96995.13
2019-05-14T06:45:03.362Z,97010.84
2019-05-14T06:47:53.133Z,96973.55
2019-05-14T06:50:42.845Z,97008.83
2019-05-14T06:53:28.770Z,96977.15
2019-05-14T06:56:21.425Z,96996.98
2019-05-14T06:59:09.373Z,97016.77
2019-05-14T07:01:53.351Z,96982.40
2019-05-14T07:04:35.539Z,96986.81
2019-05-14T07:07:25.348Z,97034.10
2019-05-14T07:10:15.686Z,97005.42
2019-05-14T07:13:05.382Z,96998.80
2019-05-14T07:15:55.123Z,97006.05
2019-05-14T07:18:49.330Z,96993.30
2019-05-14T07:21:38.374Z,97004.98
2019-05-14T07:24:20.769Z,96975.28
2019-05-14T07:27:10.510Z,96989.16
2019-05-14T07:29:52.614Z,96985.95
2019-05-14T07:32:42.334Z,96986.37
2019-05-14T07:35:32.051Z,96975.17
2019-05-14T07:38:14.325Z,96986.30
2019-05-14T07:41:04.072Z,96968.13
2019-05-14T07:43:53.848Z,96970.96
2019-05-14T07:46:43.622Z,96946.98
2019-05-14T07:49:33.416Z,96967.20
2019-05-14T07:52:23.165Z,96966.65
2019-05-14T07:55:13.075Z,96972.81
2019-05-14T07:57:55.166Z,96959.47
2019-05-14T08:03:49.092Z,96982.34
2019-05-14T08:06:32.638Z,96962.96
2019-05-14T08:09:22.587Z,96953.89
2019-05-14T08:12:12.880Z,96953.80
2019-05-14T08:15:15.290Z,96950.22
2019-05-14T08:17:48.248Z,96960.97
2019-05-14T08:20:38.204Z,96918.52
2019-05-14T08:23:22.290Z,96954.95
2019-05-14T08:26:11.984Z,96951.70
2019-05-14T08:28:53.895Z,96955.75
2019-05-14T08:31:43.653Z,96953.58
2019-05-14T08:34:33.428Z,96957.78
2019-05-14T08:37:23.204Z,96935.33
2019-05-14T08:43:18.702Z,96934.94
2019-05-14T08:46:01.369Z,96950.41
2019-05-14T08:48:51.187Z,96952.84
2019-05-14T08:51:41.004Z,96922.16
2019-05-14T08:54:30.792Z,96909.52
2019-05-14T08:57:20.554Z,96926.75
2019-05-14T09:00:13.809Z,96932.44
2019-05-14T09:02:55.299Z,96925.47
2019-05-14T09:06:04.177Z,96948.50
2019-05-14T09:08:53.965Z,96924.25
2019-05-14T09:11:45.832Z,96919.16
2019-05-14T09:14:28.247Z,96939.84
2019-05-14T09:17:30.874Z,96919.79
2019-05-14T09:20:06.951Z,96933.08
2019-05-14T09:22:33.946Z,96912.15
2019-05-14T09:25:23.661Z,96922.77
2019-05-14T09:28:08.923Z,96903.62
2019-05-14T09:30:59.601Z,96906.89
2019-05-14T09:33:45.793Z,96906.44
2019-05-14T09:36:28.916Z,96903.99
2019-05-14T09:39:19.001Z,96921.62
2019-05-14T09:42:08.726Z,96929.41
2019-05-14T09:44:59.622Z,96915.70
2019-05-14T09:47:42.733Z,96902.84
2019-05-14T09:50:32.506Z,96902.77
2019-05-14T09:53:22.206Z,96921.04
2019-05-14T09:56:04.240Z,96943.32
2019-05-14T09:58:54.037Z,96920.63
2019-05-14T10:01:43.823Z,96925.62
2019-05-14T10:04:33.609Z,96927.45
2019-05-14T10:07:42.513Z,96929.70
2019-05-14T10:10:32.254Z,96912.97
2019-05-14T10:13:21.977Z,96924.56
2019-05-14T10:16:11.746Z,96883.77
2019-05-14T10:19:01.501Z,96921.63
2019-05-14T10:22:10.377Z,96893.34
2019-05-14T10:25:00.091Z,96915.66
2019-05-14T10:27:49.936Z,96914.71
2019-05-14T10:30:52.276Z,96898.89
2019-05-14T10:33:35.838Z,96902.77
2019-05-14T10:36:25.552Z,96894.91
2019-05-14T10:39:09.368Z,96909.86
2019-05-14T10:41:59.430Z,96896.59
2019-05-14T10:44:42.336Z,96910.23
2019-05-14T10:47:32.974Z,96865.88
2019-05-14T10:50:18.230Z,96903.19
2019-05-14T10:53:09.093Z,96899.63
2019-05-14T10:55:51.574Z,96911.16
2019-05-14T10:58:41.293Z,96866.79
2019-05-14T11:01:23.304Z,96891.20
2019-05-14T11:04:13.015Z,96864.09
2019-05-14T11:06:55.332Z,96885.44
2019-05-14T11:09:45.062Z,96876.35
2019-05-14T11:12:29.652Z,96911.65
2019-05-14T11:15:19.298Z,96889.33
2019-05-14T11:18:03.383Z,96877.30
2019-05-14T11:20:53.134Z,96888.03
2019-05-14T11:23:38.397Z,96890.11
2019-05-14T11:26:29.547Z,96875.50
2019-05-14T11:29:11.006Z,96851.33
2019-05-14T11:32:00.802Z,96863.42
2019-05-14T11:37:33.130Z,96855.45
2019-05-14T11:40:22.938Z,96863.94
2019-05-14T11:43:05.132Z,96812.92
2019-05-14T11:45:54.878Z,96845.59
2019-05-14T11:48:39.284Z,96844.18
2019-05-14T11:51:54.728Z,96850.24
2019-05-14T11:54:14.487Z,96854.56
2019-05-14T11:57:19.137Z,96858.28
2019-05-14T12:00:00.700Z,96860.17
2019-05-14T12:02:50.442Z,96856.51
2019-05-14T12:05:32.429Z,96850.47
2019-05-14T12:08:22.176Z,96841.82
2019-05-14T12:11:04.158Z,96843.06
2019-05-14T12:13:53.908Z,96837.51
2019-05-14T12:16:40.155Z,96833.24
2019-05-14T12:19:28.929Z,96827.33
2019-05-14T12:22:12.420Z,96827.72
2019-05-14T12:25:02.239Z,96851.53
2019-05-14T12:27:44.159Z,96828.47
2019-05-14T12:30:33.888Z,96821.91
2019-05-14T12:33:19.370Z,96803.12
2019-05-14T12:36:10.176Z,96817.09
2019-05-14T12:38:52.233Z,96801.38
2019-05-14T12:41:41.940Z,96822.92
2019-05-14T12:44:24.924Z,96810.44
2019-05-14T12:47:14.665Z,96801.49
2019-05-14T12:49:58.674Z,96800.77
2019-05-14T12:52:48.742Z,96776.65
2019-05-14T12:55:32.905Z,96783.63
2019-05-14T12:58:22.634Z,96822.97
2019-05-14T13:01:04.678Z,96807.61
2019-05-14T13:03:54.519Z,96842.66
2019-05-14T13:06:39.880Z,96810.62
2019-05-14T13:09:28.122Z,96818.05
2019-05-14T13:12:11.266Z,96803.91
2019-05-14T13:15:01.738Z,96802.66
2019-05-14T13:17:51.569Z,96800.88
2019-05-14T13:20:41.370Z,96819.05
2019-05-14T13:23:31.119Z,96801.84
2019-05-14T13:26:21.005Z,96805.59
2019-05-14T13:29:11.062Z,96806.84
2019-05-14T13:32:00.806Z,96790.16
2019-05-14T13:34:50.614Z,96797.98
2019-05-14T13:37:40.374Z,96774.65
2019-05-14T13:40:30.159Z,96788.32
2019-05-14T13:43:19.964Z,96807.73
2019-05-14T13:46:11.372Z,96784.16
2019-05-14T13:48:54.118Z,96793.73
2019-05-14T13:51:44.089Z,96787.38
2019-05-14T13:54:33.821Z,96782.75
2019-05-14T13:57:23.578Z,96767.30
2019-05-14T14:00:13.575Z,96762.22
2019-05-14T14:03:03.542Z,96765.55
2019-05-14T14:05:53.293Z,96786.16
2019-05-14T14:08:43.103Z,96759.61
2019-05-14T14:11:32.823Z,96756.36
2019-05-14T14:14:22.575Z,96769.20
2019-05-14T14:17:12.297Z,96760.27
2019-05-14T14:19:54.529Z,96770.36
2019-05-14T14:22:44.288Z,96738.95
2019-05-14T14:25:26.214Z,96753.00
2019-05-14T14:28:15.928Z,96755.44
2019-05-14T14:30:58.811Z,96762.80
2019-05-14T14:33:48.961Z,96746.05
2019-05-14T14:36:32.315Z,96757.22
2019-05-14T14:39:22.042Z,96732.02
2019-05-14T14:42:04.637Z,96738.47
2019-05-14T14:44:54.312Z,96734.02
2019-05-14T14:47:39.083Z,96723.69
2019-05-14T14:50:29.026Z,96713.73
2019-05-14T14:53:12.163Z,96737.17
2019-05-14T14:56:01.933Z,96725.23
2019-05-14T14:58:43.886Z,96738.52
2019-05-14T15:01:33.618Z,96713.23
2019-05-14T15:04:19.466Z,96709.99
2019-05-14T15:07:09.955Z,96728.80
2019-05-14T15:09:53.778Z,96695.13
2019-05-14T15:12:43.570Z,96734.65
2019-05-14T15:15:26.134Z,96706.48
2019-05-14T15:18:18.605Z,96707.34
2019-05-14T15:21:00.372Z,96710.05
2019-05-14T15:24:05.928Z,96702.31
2019-05-14T15:26:34.575Z,96684.06
2019-05-14T15:29:24.296Z,96708.86
2019-05-14T15:32:09.189Z,96685.16
2019-05-14T15:34:59.299Z,96703.48
2019-05-14T15:37:43.189Z,96704.53
2019-05-14T15:40:32.985Z,96700.81
2019-05-14T15:43:14.884Z,96697.11
2019-05-14T15:46:04.658Z,96705.09
2019-05-14T15:48:48.721Z,96698.52
2019-05-14T15:51:39.730Z,96705.98
2019-05-14T15:54:36.120Z,96709.55
2019-05-14T15:57:13.505Z,96678.97
2019-05-14T16:00:00.866Z,96693.68
2019-05-14T16:02:50.372Z,96685.38
2019-05-14T16:05:32.229Z,96699.25
2019-05-14T16:08:22.911Z,96698.83
2019-05-14T16:11:10.947Z,96693.70
2019-05-14T16:13:57.975Z,96692.23
2019-05-14T16:16:40.368Z,96671.42
2019-05-14T16:19:30.159Z,96691.48
2019-05-14T16:22:20.006Z,96677.44
2019-05-14T16:25:10.215Z,96699.23
2019-05-14T16:28:00.029Z,96681.44
2019-05-14T16:30:50.006Z,96675.38
2019-05-14T16:33:40.741Z,96684.38
2019-05-14T16:36:24.169Z,96675.95
2019-05-14T16:42:20.624Z,96688.79
2019-05-14T16:45:02.151Z,96683.53
2019-05-14T16:47:51.931Z,96666.55
2019-05-14T16:50:41.727Z,96686.84
2019-05-14T16:53:31.521Z,96683.59
2019-05-14T16:56:21.298Z,96666.89
2019-05-14T16:59:11.152Z,96675.08
2019-05-14T17:02:00.918Z,96674.11
2019-05-14T17:04:50.713Z,96681.61
2019-05-14T17:07:52.843Z,96687.77
2019-05-14T17:10:35.678Z,96685.83
2019-05-14T17:13:25.404Z,96684.08
2019-05-14T17:16:11.322Z,96679.59
2019-05-14T17:19:01.086Z,96679.41
2019-05-14T17:21:43.387Z,96682.14
2019-05-14T17:24:14.085Z,96674.92
2019-05-14T17:26:44.734Z,96674.64
2019-05-14T17:29:34.432Z,96670.87
2019-05-14T17:32:18.723Z,96671.21
2019-05-14T17:35:08.772Z,96648.36
2019-05-14T17:37:58.879Z,96671.05
2019-05-14T17:40:42.371Z,96658.69
2019-05-14T17:43:32.224Z,96668.04
2019-05-14T17:46:22.039Z,96661.56
2019-05-14T17:49:11.867Z,96665.52
2019-05-14T17:52:01.688Z,96662.73
2019-05-14T17:54:51.537Z,96663.05
2019-05-14T17:57:48.241Z,96663.81
2019-05-14T18:00:25.564Z,96652.59
2019-05-14T18:03:29.086Z,96654.82
2019-05-14T18:06:12.036Z,96654.50
2019-05-14T18:09:01.828Z,96658.45
2019-05-14T18:11:44.669Z,96652.39
2019-05-14T18:14:34.444Z,96655.63
2019-05-14T18:17:18.814Z,96650.42
2019-05-14T18:23:04.174Z,96631.91
2019-05-14T18:26:05.067Z,96630.83
2019-05-14T18:28:40.276Z,96652.22
2019-05-14T18:31:22.561Z,96654.61
2019-05-14T18:34:12.384Z,96648.91
2019-05-14T18:37:02.126Z,96661.98
2019-05-14T18:39:48.164Z,96664.23
2019-05-14T18:42:29.883Z,96670.05
2019-05-14T18:45:19.661Z,96663.58
2019-05-14T18:48:02.095Z,96665.61
2019-05-14T18:50:51.934Z,96661.08
2019-05-14T18:53:41.795Z,96660.72
2019-05-14T18:56:31.623Z,96657.98
2019-05-14T18:59:21.693Z,96642.64
2019-05-14T19:02:03.793Z,96658.25
2019-05-14T19:07:59.274Z,96657.46
2019-05-14T19:10:42.397Z,96655.02
2019-05-14T19:13:32.181Z,96659.89
2019-05-14T19:16:21.959Z,96660.84
2019-05-14T19:19:11.803Z,96657.50
2019-05-14T19:22:01.603Z,96657.83
2019-05-14T19:24:51.370Z,96655.41
2019-05-14T19:27:41.073Z,96667.98
2019-05-14T19:30:23.384Z,96672.88
2019-05-14T19:33:13.210Z,96667.81
2019-05-14T19:36:02.931Z,96663.67
2019-05-14T19:38:52.661Z,96669.72
2019-05-14T19:41:34.646Z,96670.83
2019-05-14T19:44:24.498Z,96673.02
2019-05-14T19:47:14.333Z,96672.30
2019-05-14T19:50:04.215Z,96664.08
2019-05-14T19:52:53.953Z,96659.27
2019-05-14T19:55:43.671Z,96694.16
2019-05-14T19:58:33.439Z,96694.95
2019-05-14T20:01:15.795Z,96669.93
2019-05-14T20:07:08.801Z,96685.77
2019-05-14T20:09:54.505Z,96689.19
2019-05-14T20:12:38.883Z,96687.92
2019-05-14T20:15:28.011Z,96678.94
2019-05-14T20:18:10.469Z,96668.63
2019-05-14T20:24:02.785Z,96696.77
2019-05-14T20:27:04.778Z,96693.30
2019-05-14T20:29:38.005Z,96687.69
2019-05-14T20:32:27.790Z,96666.22
2019-05-14T20:35:11.423Z,96689.42
2019-05-14T20:38:01.166Z,96689.98
2019-05-14T20:40:44.748Z,96689.70
2019-05-14T20:43:34.485Z,96682.19
2019-05-14T20:46:18.600Z,96682.63
2019-05-14T20:49:08.940Z,96693.05
2019-05-14T20:51:52.157Z,96689.20
2019-05-14T20:54:41.904Z,96688.09
2019-05-14T20:57:33.602Z,96690.77
2019-05-14T21:00:18.228Z,96685.80
2019-05-14T21:03:08.903Z,96681.73
2019-05-14T21:05:52.314Z,96678.73
2019-05-14T21:08:42.060Z,96674.91
2019-05-14T21:11:24.102Z,96680.66
2019-05-14T21:14:13.842Z,96677.50
2019-05-14T21:16:56.468Z,96672.75
2019-05-14T21:19:46.164Z,96673.52
2019-05-14T21:22:29.164Z,96671.66
2019-05-14T21:25:18.997Z,96676.52
2019-05-14T21:28:01.401Z,96672.88
2019-05-14T21:30:51.158Z,96667.50
2019-05-14T21:33:33.151Z,96660.03
2019-05-14T21:36:22.962Z,96672.09
2019-05-14T21:39:08.103Z,96666.77
2019-05-14T21:41:58.563Z,96662.46
2019-05-14T21:44:45.686Z,96646.09
2019-05-14T21:47:35.394Z,96639.73
2019-05-14T21:50:25.144Z,96647.59
2019-05-14T21:53:09.260Z,96669.56
2019-05-14T21:55:58.970Z,96665.55
2019-05-14T21:58:48.692Z,96653.04
2019-05-14T22:01:39.543Z,96655.67
2019-05-14T22:04:23.582Z,96672.96
2019-05-14T22:07:13.360Z,96663.29
2019-05-14T22:15:19.733Z,96663.73
2019-05-14T22:18:16.923Z,96661.79
2019-05-14T22:20:57.926Z,96671.70
2019-05-14T22:23:48.294Z,96635.97
2019-05-14T22:26:33.636Z,96677.25
2019-05-14T22:29:23.390Z,96654.49
2019-05-14T22:32:08.092Z,96664.54
2019-05-14T22:34:58.587Z,96659.81
2019-05-14T22:37:42.219Z,96659.65
2019-05-14T22:43:38.342Z,96663.02
2019-05-14T22:46:28.522Z,96660.52
2019-05-14T22:49:11.302Z,96665.06
2019-05-14T22:55:05.442Z,96662.91
2019-05-14T22:57:55.205Z,96658.05
2019-05-14T23:00:46.695Z,96662.37
2019-05-14T23:03:53.863Z,96666.25
2019-05-14T23:06:38.220Z,96658.97
2019-05-14T23:09:28.149Z,96657.02
2019-05-14T23:12:14.869Z,96657.64
2019-05-14T23:15:24.563Z,96646.02
2019-05-14T23:18:08.571Z,96629.94
2019-05-14T23:20:59.263Z,96632.21
2019-05-14T23:23:42.525Z,96642.37
2019-05-14T23:26:32.275Z,96649.72
2019-05-14T23:29:15.209Z,96640.30
2019-05-14T23:32:04.974Z,96641.19
2019-05-14T23:34:50.699Z,96635.34
2019-05-14T23:37:41.149Z,96640.02
2019-05-14T23:40:24.805Z,96651.84
2019-05-14T23:43:14.641Z,96644.30
2019-05-14T23:45:58.396Z,96634.66
2019-05-14T23:48:48.655Z,96622.55
2019-05-14T23:54:41.430Z,96631.26
2019-05-14T23:57:24.265Z,96632.70
